Time;durP1;ratioP1;P1;durP2;ratioP2;P2;SDS_P1;SDS_P2;PMS_P1;PMS_P2;Temp;Humidity;BMP_temperature;BMP_pressure;BME280_temperature;BME280_humidity;BME280_pressure;Samples;Min_cycle;Max_cycle;Signal;HPM_P1;HPM_P2
2021/05/17 00:00:07;;;;;;;5.45;3.08;;;13.40;84.10;;;;;;5084102;28;20025;-79
2021/05/17 00:02:34;;;;;;;6.03;2.75;;;13.40;84.40;;;;;;5094049;28;20377;-79
2021/05/17 00:04:59;;;;;;;3.65;2.20;;;13.30;84.50;;;;;;5093867;28;20024;-79
2021/05/17 00:07:25;;;;;;;5.72;2.38;;;13.30;84.50;;;;;;5075610;28;20549;-80
2021/05/17 00:09:51;;;;;;;4.63;2.25;;;13.30;84.60;;;;;;5090346;28;20081;-79
2021/05/17 00:12:17;;;;;;;8.00;2.55;;;13.30;84.70;;;;;;5093551;28;20028;-79
2021/05/17 00:14:42;;;;;;;8.65;3.15;;;13.30;84.80;;;;;;5093439;28;20028;-80
2021/05/17 00:17:09;;;;;;;4.13;2.60;;;13.30;84.90;;;;;;5075260;28;20032;-80
2021/05/17 00:19:34;;;;;;;6.38;2.75;;;13.30;85.00;;;;;;5083186;28;20115;-80
2021/05/17 00:22:01;;;;;;;7.00;3.20;;;13.30;85.10;;;;;;5093399;28;20469;-80
2021/05/17 00:24:26;;;;;;;6.00;2.85;;;13.30;85.20;;;;;;5092215;28;20035;-80
2021/05/17 00:26:52;;;;;;;6.70;2.72;;;13.30;85.30;;;;;;5093366;28;20020;-80
2021/05/17 00:29:18;;;;;;;5.28;2.67;;;13.30;85.50;;;;;;5093263;28;20028;-80
2021/05/17 00:31:45;;;;;;;4.47;2.30;;;13.30;85.50;;;;;;5068503;28;20040;-80
2021/05/17 00:34:11;;;;;;;4.57;2.83;;;13.30;85.50;;;;;;5092635;28;20046;-80
2021/05/17 00:36:38;;;;;;;5.30;2.20;;;13.30;85.30;;;;;;5091127;28;20036;-80
2021/05/17 00:39:11;;;;;;;7.07;2.47;;;13.30;85.50;;;;;;5073645;28;20035;-80
2021/05/17 00:41:38;;;;;;;3.58;2.22;;;13.30;85.50;;;;;;5081834;28;20032;-80
2021/05/17 00:44:05;;;;;;;5.25;2.67;;;13.30;85.50;;;;;;5091540;28;20024;-80
2021/05/17 00:46:32;;;;;;;6.13;2.20;;;13.20;86.00;;;;;;5092477;28;20032;-80
2021/05/17 00:48:58;;;;;;;4.38;2.17;;;13.20;85.40;;;;;;5093079;28;20024;-80
2021/05/17 00:51:24;;;;;;;6.50;2.20;;;13.10;85.30;;;;;;5092616;28;20024;-80
2021/05/17 00:53:50;;;;;;;6.95;2.38;;;13.10;85.40;;;;;;5075317;28;20035;-80
2021/05/17 00:56:17;;;;;;;6.00;2.30;;;13.10;85.50;;;;;;5093474;28;20548;-80
2021/05/17 00:58:42;;;;;;;5.03;2.38;;;13.10;85.60;;;;;;5074895;28;20044;-80
2021/05/17 01:01:08;;;;;;;4.05;2.20;;;13.10;85.70;;;;;;5075041;28;20511;-80
2021/05/17 01:03:35;;;;;;;6.03;2.05;;;13.00;85.70;;;;;;5093145;28;20054;-80
2021/05/17 01:06:03;;;;;;;7.25;2.33;;;13.00;85.90;;;;;;5074957;28;20397;-80
2021/05/17 01:09:05;;;;;;;4.37;2.10;;;13.00;86.00;;;;;;5054875;28;20040;-80
2021/05/17 01:11:31;;;;;;;8.80;2.30;;;12.90;86.10;;;;;;5074959;28;20282;-80
2021/05/17 01:14:00;;;;;;;3.80;2.20;;;13.00;86.10;;;;;;5093174;28;20025;-80
2021/05/17 01:16:26;;;;;;;4.00;2.38;;;13.00;86.30;;;;;;5074755;28;20055;-80
2021/05/17 01:18:53;;;;;;;7.25;2.65;;;13.00;86.20;;;;;;5092455;28;20065;-80
2021/05/17 01:21:20;;;;;;;4.70;1.92;;;12.90;86.80;;;;;;5072843;28;20096;-80
2021/05/17 01:23:55;;;;;;;5.40;2.13;;;12.90;86.30;;;;;;5072753;28;20012;-80
2021/05/17 01:26:31;;;;;;;8.35;2.50;;;12.90;86.30;;;;;;5072724;28;20040;-80
2021/05/17 01:28:59;;;;;;;3.95;2.47;;;12.90;86.20;;;;;;5072798;28;20020;-80
2021/05/17 01:31:25;;;;;;;5.13;2.13;;;12.80;86.30;;;;;;5073783;28;20053;-80
2021/05/17 01:33:50;;;;;;;5.70;2.10;;;12.80;86.40;;;;;;5093105;28;20489;-80
2021/05/17 01:36:18;;;;;;;5.72;2.28;;;12.80;86.50;;;;;;5094510;28;20480;-80
2021/05/17 01:38:49;;;;;;;4.65;1.90;;;12.80;86.50;;;;;;5095401;28;20043;-80
2021/05/17 01:41:17;;;;;;;4.38;1.90;;;12.70;86.60;;;;;;5096448;28;20028;-80
2021/05/17 01:43:45;;;;;;;5.88;2.08;;;12.70;86.70;;;;;;5078365;28;20028;-80
2021/05/17 01:46:16;;;;;;;5.35;1.90;;;12.70;86.70;;;;;;5097718;28;20391;-80
2021/05/17 01:48:43;;;;;;;3.92;1.77;;;12.70;87.40;;;;;;5098382;28;20076;-80
2021/05/17 01:51:15;;;;;;;3.22;2.05;;;12.70;86.80;;;;;;5079175;28;20078;-80
2021/05/17 01:53:42;;;;;;;2.95;1.90;;;12.70;86.90;;;;;;5067627;28;20025;-80
2021/05/17 01:56:08;;;;;;;6.03;1.95;;;12.70;87.10;;;;;;5095016;28;20646;-80
2021/05/17 01:58:36;;;;;;;7.85;2.10;;;12.70;87.20;;;;;;5077884;28;20402;-80
2021/05/17 02:01:07;;;;;;;6.57;1.75;;;12.70;87.20;;;;;;5096102;28;20020;-80
2021/05/17 02:03:37;;;;;;;4.82;1.83;;;12.70;87.10;;;;;;5078325;28;20111;-80
2021/05/17 02:06:05;;;;;;;3.30;1.48;;;12.70;87.00;;;;;;5096028;28;20024;-81
2021/05/17 02:08:32;;;;;;;4.38;1.95;;;12.70;87.00;;;;;;5077999;28;20048;-80
2021/05/17 02:10:58;;;;;;;5.97;1.85;;;12.70;87.00;;;;;;5096057;28;20028;-80
2021/05/17 02:13:26;;;;;;;5.88;1.95;;;12.70;87.10;;;;;;5095861;28;20028;-80
2021/05/17 02:15:52;;;;;;;2.33;1.13;;;12.70;87.20;;;;;;5095979;28;20469;-80
2021/05/17 02:18:18;;;;;;;2.28;1.27;;;12.70;87.20;;;;;;5095792;28;20038;-80
2021/05/17 02:20:45;;;;;;;3.78;1.25;;;12.70;87.20;;;;;;5095885;28;20024;-80
2021/05/17 02:23:13;;;;;;;4.80;1.60;;;12.70;87.10;;;;;;5094522;28;20017;-81
2021/05/17 02:25:47;;;;;;;4.50;1.58;;;12.60;86.90;;;;;;5094183;28;20024;-80
2021/05/17 02:28:14;;;;;;;5.10;1.52;;;12.60;86.70;;;;;;5095807;28;20111;-80
2021/05/17 02:30:41;;;;;;;9.30;1.40;;;12.60;86.80;;;;;;5095614;28;20032;-80
2021/05/17 02:33:07;;;;;;;5.47;1.55;;;12.60;86.80;;;;;;5084426;28;20028;-80
2021/05/17 02:35:34;;;;;;;5.78;1.70;;;12.60;86.80;;;;;;5075522;28;20103;-80
2021/05/17 02:38:00;;;;;;;2.70;1.55;;;12.60;86.80;;;;;;5057134;28;20481;-80
2021/05/17 02:40:27;;;;;;;4.25;1.50;;;12.50;86.90;;;;;;5040812;28;20028;-80
2021/05/17 02:42:59;;;;;;;4.18;1.52;;;12.50;87.00;;;;;;5040594;28;20048;-80
2021/05/17 02:45:26;;;;;;;4.25;1.20;;;12.50;87.20;;;;;;5075020;28;20025;-80
2021/05/17 02:47:52;;;;;;;2.72;1.20;;;12.50;87.10;;;;;;5056713;28;20045;-80
2021/05/17 02:50:19;;;;;;;2.80;1.10;;;12.50;86.90;;;;;;5057398;28;20497;-80
2021/05/17 02:52:45;;;;;;;3.70;1.50;;;12.50;86.80;;;;;;5074973;28;20120;-80
2021/05/17 02:55:14;;;;;;;2.63;1.17;;;12.50;86.90;;;;;;5056901;28;20020;-80
2021/05/17 02:57:49;;;;;;;3.67;1.20;;;12.60;87.00;;;;;;5074664;28;20107;-80
2021/05/17 03:00:25;;;;;;;4.78;1.13;;;12.60;86.90;;;;;;5074808;28;20029;-80
2021/05/17 03:02:56;;;;;;;2.53;1.20;;;12.50;86.70;;;;;;5040446;28;20024;-80
2021/05/17 03:05:23;;;;;;;4.25;1.17;;;12.50;86.60;;;;;;5074526;28;20119;-80
2021/05/17 03:08:01;;;;;;;5.45;1.23;;;12.50;86.60;;;;;;5057291;28;20028;-80
2021/05/17 03:10:28;;;;;;;3.63;1.20;;;12.50;86.80;;;;;;5094453;28;20032;-79
2021/05/17 03:12:58;;;;;;;2.25;0.95;;;12.50;86.70;;;;;;5094912;28;20409;-79
2021/05/17 03:15:27;;;;;;;4.07;1.13;;;12.40;86.50;;;;;;5094577;28;20024;-79
2021/05/17 03:17:54;;;;;;;3.33;1.08;;;12.40;86.40;;;;;;5094778;28;20056;-79
2021/05/17 03:20:21;;;;;;;4.13;1.23;;;12.40;86.50;;;;;;5094502;28;20029;-79
2021/05/17 03:22:49;;;;;;;1.58;1.00;;;12.40;86.50;;;;;;5076718;28;20035;-79
2021/05/17 03:25:19;;;;;;;3.72;1.20;;;12.40;86.60;;;;;;5076090;28;20024;-80
2021/05/17 03:27:45;;;;;;;5.82;1.38;;;12.40;86.60;;;;;;5077113;28;20036;-79
2021/05/17 03:30:11;;;;;;;5.97;0.98;;;12.40;86.80;;;;;;5074274;28;20035;-79
2021/05/17 03:32:37;;;;;;;3.60;1.25;;;12.40;86.90;;;;;;5059396;28;20028;-79
2021/05/17 03:35:03;;;;;;;2.58;0.70;;;12.30;86.90;;;;;;5094128;28;20024;-79
2021/05/17 03:37:28;;;;;;;2.78;0.90;;;12.40;87.00;;;;;;5075982;28;20503;-79
2021/05/17 03:39:54;;;;;;;4.43;1.10;;;12.30;87.00;;;;;;5094013;28;20028;-79
2021/05/17 03:42:20;;;;;;;3.42;1.10;;;12.40;87.00;;;;;;5076157;28;20039;-79
2021/05/17 03:44:45;;;;;;;5.30;1.13;;;12.40;86.90;;;;;;5093968;28;20427;-79
2021/05/17 03:47:11;;;;;;;4.47;1.20;;;12.40;87.00;;;;;;5076130;28;20081;-80
2021/05/17 03:49:37;;;;;;;4.15;1.20;;;12.40;87.10;;;;;;5094047;28;20129;-80
2021/05/17 03:52:03;;;;;;;3.53;1.02;;;12.40;87.10;;;;;;5094067;28;20112;-80
2021/05/17 03:54:29;;;;;;;3.95;1.08;;;12.40;87.10;;;;;;5086238;28;20031;-79
2021/05/17 03:56:55;;;;;;;4.78;1.20;;;12.40;87.20;;;;;;5093769;28;20024;-79
2021/05/17 03:59:21;;;;;;;3.35;1.13;;;12.40;87.30;;;;;;5093561;28;20043;-79
2021/05/17 04:01:47;;;;;;;2.75;1.05;;;12.40;87.30;;;;;;5093766;28;20035;-79
2021/05/17 04:04:14;;;;;;;6.25;1.67;;;12.40;87.30;;;;;;5075663;28;20362;-79
2021/05/17 04:06:48;;;;;;;2.22;1.15;;;12.40;87.40;;;;;;5068816;28;20021;-79
2021/05/17 04:14:42;;;;;;;3.85;1.30;;;12.40;87.20;;;;;;5060296;28;20089;-79
2021/05/17 04:17:08;;;;;;;6.53;1.40;;;12.40;87.20;;;;;;5093854;28;20032;-79
2021/05/17 04:19:33;;;;;;;4.72;1.08;;;12.50;87.20;;;;;;5075510;28;20035;-79
2021/05/17 04:21:59;;;;;;;4.15;1.20;;;12.40;87.10;;;;;;5075535;28;20469;-79
2021/05/17 04:24:25;;;;;;;4.43;1.20;;;12.50;87.30;;;;;;5093760;28;20029;-79
2021/05/17 04:26:50;;;;;;;4.60;1.42;;;12.40;87.30;;;;;;5075375;28;20413;-79
2021/05/17 04:29:16;;;;;;;3.50;1.30;;;12.50;87.40;;;;;;5055142;28;20056;-79
2021/05/17 04:31:42;;;;;;;4.88;1.58;;;12.50;87.40;;;;;;5073304;28;20104;-79
2021/05/17 04:34:07;;;;;;;3.80;1.40;;;12.50;87.40;;;;;;5094895;28;20024;-79
2021/05/17 04:36:33;;;;;;;3.63;1.27;;;12.50;87.40;;;;;;5092093;28;20119;-79
2021/05/17 04:38:59;;;;;;;5.57;1.60;;;12.50;87.40;;;;;;5074053;28;20089;-79
2021/05/17 04:41:28;;;;;;;4.65;1.30;;;12.50;87.70;;;;;;5093310;28;20051;-79
2021/05/17 04:43:54;;;;;;;9.40;1.60;;;12.50;87.60;;;;;;5093053;28;20016;-80
2021/05/17 04:46:20;;;;;;;6.32;1.45;;;12.50;88.10;;;;;;5074975;28;20036;-80
2021/05/17 04:48:51;;;;;;;4.60;1.70;;;12.60;87.60;;;;;;5063732;28;20397;-80
2021/05/17 04:51:22;;;;;;;4.32;1.38;;;12.60;87.40;;;;;;5093164;28;20032;-80
2021/05/17 04:53:49;;;;;;;4.10;1.48;;;12.60;87.70;;;;;;5081448;28;20024;-81
2021/05/17 04:56:15;;;;;;;4.28;1.40;;;12.60;87.10;;;;;;5092562;28;20028;-80
2021/05/17 04:58:40;;;;;;;7.22;1.27;;;12.60;87.00;;;;;;5053722;28;20037;-80
2021/05/17 05:01:06;;;;;;;5.22;1.40;;;12.60;87.00;;;;;;5072423;28;20474;-80
2021/05/17 05:03:31;;;;;;;4.72;1.38;;;12.60;86.90;;;;;;5088805;28;20060;-80
2021/05/17 05:05:58;;;;;;;5.38;1.38;;;12.70;87.00;;;;;;5077731;28;20020;-80
2021/05/17 05:08:23;;;;;;;8.93;1.60;;;12.70;86.60;;;;;;5091596;28;20032;-79
2021/05/17 05:10:49;;;;;;;5.72;1.52;;;12.70;86.60;;;;;;5106652;28;20035;-79
2021/05/17 05:13:15;;;;;;;4.38;1.90;;;12.70;86.50;;;;;;5097261;28;20035;-79
2021/05/17 05:15:40;;;;;;;7.75;1.92;;;12.70;86.40;;;;;;5060353;28;20392;-79
2021/05/17 05:18:06;;;;;;;8.93;1.42;;;12.70;86.40;;;;;;5113363;27;20030;-78
2021/05/17 05:20:33;;;;;;;7.05;1.65;;;12.80;86.30;;;;;;5111930;28;20050;-78
2021/05/17 05:23:01;;;;;;;4.40;1.30;;;12.70;86.10;;;;;;5096357;28;20024;-78
2021/05/17 05:25:32;;;;;;;7.05;1.60;;;12.70;86.00;;;;;;5096149;28;20148;-79
2021/05/17 05:27:59;;;;;;;5.75;1.42;;;12.70;86.20;;;;;;5073274;28;20097;-78
2021/05/17 05:33:07;;;;;;;8.38;1.90;;;12.70;86.40;;;;;;5078973;28;20469;-78
2021/05/17 05:35:33;;;;;;;10.80;1.58;;;12.70;86.30;;;;;;5088147;28;20067;-78
2021/05/17 05:37:59;;;;;;;6.22;1.45;;;12.80;86.20;;;;;;5076944;28;20035;-78
2021/05/17 05:40:25;;;;;;;6.03;1.50;;;12.80;86.40;;;;;;5067414;28;20419;-79
2021/05/17 05:42:50;;;;;;;4.78;1.33;;;12.80;86.30;;;;;;5095243;28;20032;-79
2021/05/17 05:45:16;;;;;;;7.25;1.45;;;12.90;86.30;;;;;;5057080;28;20500;-78
2021/05/17 05:47:42;;;;;;;5.88;1.40;;;12.90;86.00;;;;;;5075982;28;20149;-78
2021/05/17 05:50:08;;;;;;;9.48;1.63;;;13.00;85.90;;;;;;5065301;28;20398;-79
2021/05/17 05:52:33;;;;;;;3.90;1.23;;;13.10;85.20;;;;;;5077678;28;20028;-78
2021/05/17 05:55:04;;;;;;;6.68;1.38;;;13.20;85.00;;;;;;5080263;28;20169;-79
2021/05/17 05:57:36;;;;;;;5.03;1.33;;;13.20;84.60;;;;;;5068616;28;20035;-78
2021/05/17 06:00:05;;;;;;;6.53;1.20;;;13.30;84.70;;;;;;5078240;28;20028;-79
2021/05/17 06:02:30;;;;;;;4.93;1.50;;;13.30;84.60;;;;;;5081250;28;20048;-79
2021/05/17 06:04:56;;;;;;;5.50;1.30;;;13.30;84.20;;;;;;5093603;28;20396;-78
2021/05/17 06:07:22;;;;;;;7.03;1.30;;;13.40;84.50;;;;;;5094677;28;20403;-78
2021/05/17 06:09:47;;;;;;;5.07;1.35;;;13.40;84.20;;;;;;5088044;28;20024;-78
2021/05/17 06:12:13;;;;;;;9.07;1.67;;;13.40;83.70;;;;;;5095334;28;20515;-78
2021/05/17 06:14:39;;;;;;;8.93;1.40;;;13.40;83.30;;;;;;5071400;28;20153;-78
2021/05/17 06:17:05;;;;;;;6.78;1.42;;;13.40;83.10;;;;;;5076777;28;20036;-78
2021/05/17 06:19:31;;;;;;;10.65;1.50;;;13.30;83.40;;;;;;5075940;28;20512;-78
2021/05/17 06:21:56;;;;;;;6.88;1.85;;;13.30;83.50;;;;;;5075817;28;20027;-78
2021/05/17 06:24:22;;;;;;;5.45;1.15;;;13.40;83.40;;;;;;5058655;28;20039;-79
2021/05/17 06:26:48;;;;;;;5.75;1.17;;;13.40;83.30;;;;;;5093542;28;20024;-78
2021/05/17 06:29:14;;;;;;;9.63;1.48;;;13.60;83.60;;;;;;5076530;28;20033;-78
2021/05/17 06:31:45;;;;;;;6.28;1.45;;;13.70;83.50;;;;;;5093727;28;20016;-78
2021/05/17 06:34:11;;;;;;;7.38;1.60;;;13.80;82.50;;;;;;5084577;28;20020;-77
2021/05/17 06:36:37;;;;;;;12.05;1.73;;;13.90;82.50;;;;;;5086422;28;20019;-78
2021/05/17 06:39:06;;;;;;;6.28;1.42;;;14.00;82.20;;;;;;5094473;28;20028;-78
2021/05/17 06:41:32;;;;;;;5.15;1.08;;;14.00;81.50;;;;;;5094777;28;20020;-78
2021/05/17 06:43:57;;;;;;;10.80;1.70;;;14.10;81.40;;;;;;5059603;28;20396;-78
2021/05/17 06:46:23;;;;;;;7.47;1.50;;;14.10;81.30;;;;;;5090525;28;20165;-78
2021/05/17 06:48:50;;;;;;;6.95;1.48;;;14.10;81.10;;;;;;5083731;28;20047;-78
2021/05/17 06:51:17;;;;;;;7.00;1.27;;;14.10;80.80;;;;;;5089028;28;20111;-78
2021/05/17 06:53:44;;;;;;;5.90;1.40;;;14.20;79.60;;;;;;5076312;28;20536;-78
2021/05/17 06:56:21;;;;;;;6.50;1.60;;;14.20;79.40;;;;;;5109747;28;20028;-78
2021/05/17 06:58:54;;;;;;;7.72;1.23;;;14.30;79.10;;;;;;5076057;28;20071;-78
2021/05/17 07:01:20;;;;;;;6.63;1.17;;;14.30;79.20;;;;;;5068985;28;20032;-78
2021/05/17 07:03:46;;;;;;;5.00;1.20;;;14.20;79.00;;;;;;5093912;28;20058;-78
2021/05/17 07:06:16;;;;;;;7.07;1.40;;;14.30;79.50;;;;;;5050931;28;20052;-77
2021/05/17 07:11:38;;;;;;;7.28;1.15;;;14.20;79.50;;;;;;5082352;28;20030;-78
2021/05/17 07:14:04;;;;;;;4.35;1.33;;;14.10;79.90;;;;;;5068866;28;20503;-78
2021/05/17 07:16:29;;;;;;;6.05;1.35;;;14.10;80.20;;;;;;5075600;28;20032;-77
2021/05/17 07:18:55;;;;;;;6.57;1.27;;;14.10;80.70;;;;;;5072208;28;20109;-78
2021/05/17 07:23:47;;;;;;;3.38;0.98;;;14.10;79.80;;;;;;5076100;28;20585;-78
2021/05/17 07:26:16;;;;;;;4.55;1.42;;;14.10;79.40;;;;;;5098638;28;20468;-78
2021/05/17 07:28:43;;;;;;;3.58;1.00;;;14.20;79.30;;;;;;5079525;28;20024;-78
2021/05/17 07:31:09;;;;;;;4.63;1.25;;;14.20;79.20;;;;;;5087951;28;20020;-78
2021/05/17 07:33:37;;;;;;;3.85;0.90;;;14.10;78.80;;;;;;5091341;28;20024;-78
2021/05/17 07:36:03;;;;;;;5.32;1.08;;;14.10;79.30;;;;;;5082801;28;20030;-78
2021/05/17 07:38:31;;;;;;;4.50;0.93;;;14.20;79.50;;;;;;5071923;28;20039;-81
2021/05/17 07:40:59;;;;;;;6.93;0.85;;;14.30;79.30;;;;;;5057748;28;20385;-77
2021/05/17 07:43:25;;;;;;;4.68;1.10;;;14.40;80.00;;;;;;5092751;28;20043;-82
2021/05/17 07:45:51;;;;;;;6.00;0.82;;;14.50;77.40;;;;;;5059844;28;20024;-82
2021/05/17 07:48:17;;;;;;;3.45;0.80;;;14.70;77.80;;;;;;5093867;28;20476;-78
2021/05/17 07:50:43;;;;;;;5.97;1.10;;;14.70;76.90;;;;;;5092783;28;20028;-77
2021/05/17 07:53:09;;;;;;;4.10;0.68;;;14.80;76.90;;;;;;5092950;28;20036;-77
2021/05/17 07:55:34;;;;;;;5.80;1.83;;;14.80;75.90;;;;;;5093436;28;20028;-77
2021/05/17 07:58:00;;;;;;;6.20;1.05;;;15.00;76.50;;;;;;5068274;28;20037;-77
2021/05/17 08:00:26;;;;;;;4.22;0.98;;;15.30;74.60;;;;;;5076802;28;20500;-77
2021/05/17 08:02:51;;;;;;;5.70;1.02;;;15.40;74.90;;;;;;5067243;28;20028;-77
2021/05/17 08:05:17;;;;;;;4.53;0.80;;;15.30;74.40;;;;;;5075148;28;20047;-77
2021/05/17 08:07:43;;;;;;;5.72;1.00;;;15.20;74.70;;;;;;5038313;28;20036;-77
2021/05/17 08:10:11;;;;;;;2.45;0.98;;;15.00;76.10;;;;;;5075162;28;20042;-77
2021/05/17 08:12:37;;;;;;;3.40;0.98;;;14.90;77.90;;;;;;5091916;28;20060;-77
2021/05/17 08:15:04;;;;;;;3.42;1.10;;;14.60;78.80;;;;;;5075065;28;20513;-77
2021/05/17 08:17:30;;;;;;;4.22;1.33;;;14.50;80.20;;;;;;5075011;28;20024;-77
2021/05/17 08:19:56;;;;;;;3.08;0.90;;;14.50;81.10;;;;;;5057111;28;20070;-78
2021/05/17 08:22:22;;;;;;;5.30;1.27;;;14.50;81.60;;;;;;5106017;28;20024;-78
2021/05/17 08:24:47;;;;;;;2.50;0.95;;;14.70;82.30;;;;;;5094982;28;20036;-78
2021/05/17 08:27:13;;;;;;;4.28;1.00;;;14.80;81.30;;;;;;5084113;28;20041;-77
2021/05/17 08:29:39;;;;;;;4.22;0.93;;;15.00;81.10;;;;;;5083740;28;20419;-77
2021/05/17 08:32:09;;;;;;;5.43;1.40;;;15.10;81.00;;;;;;5093025;28;20044;-77
2021/05/17 08:34:34;;;;;;;4.55;1.30;;;15.20;80.60;;;;;;5082778;28;20032;-77
2021/05/17 08:37:01;;;;;;;10.65;1.38;;;15.40;79.20;;;;;;5055604;28;20088;-77
2021/05/17 08:39:27;;;;;;;4.20;1.13;;;15.70;79.20;;;;;;5086733;28;20039;-77
2021/05/17 08:41:56;;;;;;;3.95;1.08;;;16.00;78.30;;;;;;5074005;28;20020;-77
2021/05/17 08:44:23;;;;;;;5.65;1.38;;;16.30;77.40;;;;;;5068726;28;20496;-77
2021/05/17 08:46:49;;;;;;;4.00;1.27;;;16.50;76.30;;;;;;5073077;28;20048;-77
2021/05/17 08:49:15;;;;;;;5.43;1.60;;;16.50;75.20;;;;;;5056117;28;20028;-77
2021/05/17 08:51:41;;;;;;;2.67;1.10;;;16.40;75.00;;;;;;5063971;28;20491;-77
2021/05/17 08:54:09;;;;;;;4.20;1.05;;;16.30;75.50;;;;;;5072608;28;20016;-77
2021/05/17 08:56:35;;;;;;;6.95;1.42;;;16.20;75.50;;;;;;5074907;28;20028;-77
2021/05/17 08:59:03;;;;;;;5.03;1.08;;;16.10;75.70;;;;;;5089791;28;20048;-77
2021/05/17 09:01:29;;;;;;;8.33;1.30;;;15.90;76.60;;;;;;5068687;28;20111;-77
2021/05/17 09:03:59;;;;;;;4.50;1.20;;;15.80;77.70;;;;;;5086922;28;20266;-77
2021/05/17 09:06:53;;;;;;;5.95;1.40;;;15.70;78.40;;;;;;5092329;28;20070;-77
2021/05/17 09:09:37;;;;;;;7.90;2.03;;;15.70;79.10;;;;;;5073720;28;20028;-78
2021/05/17 09:12:07;;;;;;;5.05;1.77;;;15.80;79.20;;;;;;5093137;28;20024;-82
2021/05/17 09:14:34;;;;;;;4.57;1.77;;;15.90;79.70;;;;;;5073092;28;20416;-80
2021/05/17 09:17:07;;;;;;;6.60;1.75;;;16.00;79.60;;;;;;5072941;28;20021;-79
2021/05/17 09:19:34;;;;;;;6.55;1.55;;;16.10;78.90;;;;;;5087661;28;20064;-79
2021/05/17 09:22:04;;;;;;;5.35;1.88;;;16.10;78.90;;;;;;5057779;28;20028;-79
2021/05/17 09:24:47;;;;;;;3.15;1.40;;;16.10;78.60;;;;;;5092215;28;20051;-79
2021/05/17 09:27:32;;;;;;;3.75;1.30;;;16.00;78.70;;;;;;5091700;28;20043;-79
2021/05/17 09:30:03;;;;;;;4.35;1.48;;;15.80;79.10;;;;;;5072841;28;20039;-79
2021/05/17 09:32:39;;;;;;;3.42;1.25;;;15.70;79.80;;;;;;5054638;28;20397;-79
2021/05/17 09:35:19;;;;;;;5.10;1.20;;;15.50;79.60;;;;;;5072791;28;20044;-79
2021/05/17 09:37:48;;;;;;;5.43;1.25;;;15.50;80.10;;;;;;5072782;28;20028;-79
2021/05/17 09:40:25;;;;;;;6.43;1.42;;;15.50;80.50;;;;;;5081053;28;20032;-79
2021/05/17 09:43:08;;;;;;;3.95;1.42;;;15.60;80.80;;;;;;5054826;28;20048;-79
2021/05/17 09:45:36;;;;;;;3.78;1.30;;;15.50;80.60;;;;;;5059077;28;20020;-78
2021/05/17 09:48:08;;;;;;;5.18;1.27;;;15.60;80.60;;;;;;5092738;28;20511;-77
2021/05/17 09:51:14;;;;;;;3.80;1.00;;;15.80;80.40;;;;;;5092722;28;20044;-78
2021/05/17 09:53:41;;;;;;;4.63;1.30;;;16.10;80.00;;;;;;5084678;28;20077;-78
2021/05/17 09:56:15;;;;;;;3.00;0.98;;;16.40;78.80;;;;;;5072592;28;20028;-77
2021/05/17 09:58:48;;;;;;;3.47;1.02;;;16.60;78.00;;;;;;5095811;28;20051;-77
2021/05/17 10:01:27;;;;;;;1.45;0.82;;;16.90;77.00;;;;;;5095827;28;20056;-77
2021/05/17 10:04:04;;;;;;;4.80;0.82;;;17.20;76.10;;;;;;5095856;28;20511;-77
2021/05/17 10:06:31;;;;;;;2.70;0.50;;;17.20;75.60;;;;;;5090537;28;20056;-77
2021/05/17 10:08:57;;;;;;;2.50;0.70;;;17.00;74.40;;;;;;5077978;28;20121;-77
2021/05/17 10:11:26;;;;;;;3.30;0.90;;;16.90;73.00;;;;;;5077884;28;20101;-77
2021/05/17 10:13:52;;;;;;;0.70;0.38;;;16.90;72.90;;;;;;5077879;28;20020;-79
2021/05/17 10:16:19;;;;;;;1.75;0.70;;;16.90;72.80;;;;;;5091317;28;20051;-79
2021/05/17 10:18:46;;;;;;;1.83;0.55;;;16.80;71.30;;;;;;5072438;28;20031;-79
2021/05/17 10:21:16;;;;;;;2.20;0.68;;;16.80;71.40;;;;;;5091428;28;20115;-79
2021/05/17 10:23:42;;;;;;;3.63;0.73;;;16.80;72.50;;;;;;5090950;28;20018;-79
2021/05/17 10:26:16;;;;;;;3.33;0.85;;;16.90;73.00;;;;;;5091321;28;20496;-79
2021/05/17 10:29:03;;;;;;;3.15;0.80;;;16.90;72.70;;;;;;5091159;28;20032;-79
2021/05/17 10:31:32;;;;;;;2.72;0.80;;;17.00;72.40;;;;;;5090722;28;20477;-79
2021/05/17 10:34:06;;;;;;;1.77;0.70;;;17.00;72.10;;;;;;5090291;28;20401;-79
2021/05/17 10:36:56;;;;;;;3.00;0.93;;;17.00;71.80;;;;;;5091360;28;20020;-78
2021/05/17 10:39:36;;;;;;;6.07;0.85;;;17.00;72.00;;;;;;5090580;28;20024;-78
2021/05/17 10:47:44;;;;;;;3.38;0.80;;;16.60;75.10;;;;;;5090300;28;20070;-80
2021/05/17 10:50:21;;;;;;;4.47;0.93;;;16.30;76.20;;;;;;5074446;28;20039;-80
2021/05/17 10:52:47;;;;;;;4.55;1.33;;;16.00;77.70;;;;;;5076494;28;20048;-81
2021/05/17 10:55:17;;;;;;;4.50;0.73;;;15.70;78.20;;;;;;5076636;28;20509;-81
2021/05/17 10:58:07;;;;;;;3.28;0.90;;;15.50;79.30;;;;;;5076371;28;20031;-81
2021/05/17 11:00:35;;;;;;;4.40;0.90;;;15.30;79.70;;;;;;5068680;28;20377;-80
2021/05/17 11:03:16;;;;;;;3.00;0.98;;;15.10;80.40;;;;;;5068841;28;20027;-81
2021/05/17 11:05:43;;;;;;;2.88;1.00;;;15.00;81.30;;;;;;5067748;28;20028;-81
2021/05/17 11:08:12;;;;;;;4.05;1.05;;;14.80;81.50;;;;;;5086515;28;20136;-81
2021/05/17 11:10:43;;;;;;;2.50;0.95;;;14.70;82.70;;;;;;5094093;28;20507;-80
2021/05/17 11:13:19;;;;;;;3.35;1.00;;;14.70;83.80;;;;;;5093166;28;20032;-81
2021/05/17 11:15:52;;;;;;;5.85;1.00;;;14.70;83.70;;;;;;5080645;28;20035;-81
2021/05/17 11:18:24;;;;;;;2.58;1.10;;;14.70;83.90;;;;;;5075749;28;20036;-81
2021/05/17 11:20:52;;;;;;;3.30;1.50;;;14.70;84.30;;;;;;5077584;28;20388;-81
2021/05/17 11:23:26;;;;;;;6.13;1.33;;;14.70;84.50;;;;;;5105688;28;20027;-80
2021/05/17 11:26:09;;;;;;;3.63;1.50;;;14.60;84.70;;;;;;5076215;28;20476;-80
2021/05/17 11:28:38;;;;;;;1.90;1.20;;;14.50;85.50;;;;;;5071592;28;20028;-80
2021/05/17 11:31:05;;;;;;;5.97;1.58;;;14.50;85.90;;;;;;5084209;28;20043;-80
2021/05/17 11:34:01;;;;;;;2.00;1.40;;;14.60;86.50;;;;;;5094537;28;20032;-80
2021/05/17 11:36:27;;;;;;;7.00;2.10;;;14.90;86.40;;;;;;5094482;28;20028;-80
2021/05/17 11:39:13;;;;;;;5.63;1.95;;;15.10;85.80;;;;;;5094768;28;20032;-80
2021/05/17 11:41:42;;;;;;;7.45;2.50;;;15.30;85.60;;;;;;5094448;28;20016;-80
2021/05/17 11:44:09;;;;;;;;;;;15.50;85.50;;;;;;5094749;28;20020;-80
2021/05/17 11:46:38;;;;;;;4.57;2.38;;;15.60;84.90;;;;;;5076242;28;19910;-78
2021/05/17 11:49:05;;;;;;;8.90;3.08;;;15.60;85.20;;;;;;5094638;28;20360;-78
2021/05/17 11:51:31;;;;;;;6.43;2.90;;;15.60;84.70;;;;;;5094285;28;20035;-78
2021/05/17 11:53:57;;;;;;;4.32;2.60;;;15.60;84.70;;;;;;5094142;28;20025;-77
2021/05/17 11:56:44;;;;;;;6.05;3.70;;;15.70;84.90;;;;;;5094160;28;20121;-78
2021/05/17 11:59:15;;;;;;;6.88;3.45;;;15.90;84.50;;;;;;5093752;28;20044;-78
2021/05/17 12:01:53;;;;;;;6.20;3.78;;;15.90;84.10;;;;;;5094034;28;20031;-78
2021/05/17 12:04:35;;;;;;;5.75;3.45;;;16.00;84.00;;;;;;5093872;28;20070;-78
2021/05/17 12:07:24;;;;;;;4.30;3.45;;;16.00;84.30;;;;;;5075817;28;20043;-78
2021/05/17 12:09:51;;;;;;;3.90;3.20;;;16.00;84.90;;;;;;5075775;28;20027;-78
2021/05/17 12:12:19;;;;;;;4.43;3.50;;;16.10;85.00;;;;;;5075694;28;20036;-78
2021/05/17 12:14:47;;;;;;;5.13;3.38;;;16.40;83.90;;;;;;5093879;28;20012;-78
2021/05/17 12:17:17;;;;;;;5.27;3.57;;;16.50;81.80;;;;;;5075580;28;20028;-78
2021/05/17 12:19:54;;;;;;;8.07;4.20;;;16.50;81.60;;;;;;5092916;28;20254;-78
2021/05/17 12:22:23;;;;;;;5.70;4.45;;;16.50;81.30;;;;;;5093630;28;20013;-78
2021/05/17 12:24:59;;;;;;;6.18;4.32;;;16.40;80.80;;;;;;5093447;28;20028;-78
2021/05/17 12:27:25;;;;;;;6.18;4.45;;;16.30;81.10;;;;;;5075563;28;20028;-78
2021/05/17 12:29:57;;;;;;;7.25;4.20;;;16.10;82.00;;;;;;5075562;28;20032;-77
2021/05/17 12:32:40;;;;;;;5.93;4.88;;;16.10;81.90;;;;;;5093652;28;20024;-77
2021/05/17 12:35:29;;;;;;;8.50;5.07;;;16.00;83.00;;;;;;5093433;28;20030;-77
2021/05/17 12:37:56;;;;;;;5.97;4.45;;;16.00;82.00;;;;;;5082506;28;20050;-77
2021/05/17 12:40:39;;;;;;;8.57;4.18;;;16.00;82.40;;;;;;5093499;28;20042;-77
2021/05/17 12:43:18;;;;;;;7.53;5.03;;;16.00;82.30;;;;;;5072062;28;20039;-77
2021/05/17 12:45:47;;;;;;;13.20;5.18;;;15.90;82.70;;;;;;5073311;28;20377;-77
2021/05/17 12:48:20;;;;;;;8.43;5.45;;;15.70;83.10;;;;;;5073245;28;20048;-77
2021/05/17 12:50:49;;;;;;;7.57;4.75;;;15.60;83.80;;;;;;5062084;28;20047;-77
2021/05/17 12:53:17;;;;;;;9.15;5.88;;;15.50;83.70;;;;;;5093563;28;20032;-77
2021/05/17 12:55:49;;;;;;;8.73;5.95;;;15.40;84.30;;;;;;5075537;28;20111;-77
2021/05/17 12:58:26;;;;;;;10.73;5.65;;;15.40;84.60;;;;;;5058307;28;20062;-77
2021/05/17 13:00:54;;;;;;;9.93;5.28;;;15.30;84.30;;;;;;5093263;28;20033;-77
2021/05/17 13:03:29;;;;;;;11.00;5.68;;;15.30;83.90;;;;;;5075333;28;20032;-77
2021/05/17 13:06:09;;;;;;;10.18;5.18;;;15.30;83.90;;;;;;5075158;28;20035;-77
2021/05/17 13:08:41;;;;;;;16.35;5.30;;;15.20;84.30;;;;;;5092935;28;20028;-77
2021/05/17 13:11:09;;;;;;;14.45;6.03;;;15.10;83.50;;;;;;5093169;28;20495;-77
2021/05/17 13:13:44;;;;;;;12.38;5.97;;;15.10;83.40;;;;;;5093314;28;20024;-77